sensor_id;sensor_type;location;lat;lon;timestamp;P1;durP1;ratioP1;P2;durP2;ratioP2
76850;SDS011;65824;43.726;20.692;2023-02-01T00:00:11;13.23;;;6.18;;
76850;SDS011;65824;43.726;20.692;2023-02-01T00:02:37;14.63;;;6.22;;
76850;SDS011;65824;43.726;20.692;2023-02-01T00:05:06;13.70;;;6.15;;
76850;SDS011;65824;43.726;20.692;2023-02-01T00:07:34;15.30;;;6.53;;
76850;SDS011;65824;43.726;20.692;2023-02-01T00:10:00;14.20;;;6.28;;
76850;SDS011;65824;43.726;20.692;2023-02-01T00:12:30;15.18;;;6.47;;
76850;SDS011;65824;43.726;20.692;2023-02-01T00:14:56;15.18;;;6.78;;
76850;SDS011;65824;43.726;20.692;2023-02-01T00:17:21;15.55;;;7.25;;
76850;SDS011;65824;43.726;20.692;2023-02-01T00:19:47;18.23;;;7.70;;
76850;SDS011;65824;43.726;20.692;2023-02-01T00:22:15;14.98;;;7.13;;
76850;SDS011;65824;43.726;20.692;2023-02-01T00:24:40;17.70;;;7.45;;
76850;SDS011;65824;43.726;20.692;2023-02-01T00:27:06;18.75;;;7.57;;
76850;SDS011;65824;43.726;20.692;2023-02-01T00:29:31;16.45;;;8.32;;
76850;SDS011;65824;43.726;20.692;2023-02-01T00:31:57;21.00;;;8.85;;
76850;SDS011;65824;43.726;20.692;2023-02-01T00:34:23;19.45;;;9.05;;
76850;SDS011;65824;43.726;20.692;2023-02-01T00:36:48;18.67;;;8.93;;
76850;SDS011;65824;43.726;20.692;2023-02-01T00:39:14;18.88;;;8.80;;
76850;SDS011;65824;43.726;20.692;2023-02-01T00:41:40;19.20;;;8.35;;
76850;SDS011;65824;43.726;20.692;2023-02-01T00:44:06;19.75;;;8.85;;
76850;SDS011;65824;43.726;20.692;2023-02-01T00:46:32;16.65;;;7.13;;
76850;SDS011;65824;43.726;20.692;2023-02-01T00:48:57;14.35;;;6.85;;
76850;SDS011;65824;43.726;20.692;2023-02-01T00:51:24;13.32;;;6.32;;
76850;SDS011;65824;43.726;20.692;2023-02-01T00:53:51;14.85;;;6.65;;
76850;SDS011;65824;43.726;20.692;2023-02-01T00:56:17;13.38;;;6.30;;
76850;SDS011;65824;43.726;20.692;2023-02-01T00:58:43;12.43;;;5.35;;
76850;SDS011;65824;43.726;20.692;2023-02-01T01:03:39;11.65;;;5.10;;
76850;SDS011;65824;43.726;20.692;2023-02-01T01:06:08;12.65;;;4.95;;
76850;SDS011;65824;43.726;20.692;2023-02-01T01:08:35;10.40;;;4.75;;
76850;SDS011;65824;43.726;20.692;2023-02-01T01:11:05;11.02;;;5.13;;
76850;SDS011;65824;43.726;20.692;2023-02-01T01:13:31;10.07;;;4.43;;
76850;SDS011;65824;43.726;20.692;2023-02-01T01:15:59;10.32;;;4.20;;
76850;SDS011;65824;43.726;20.692;2023-02-01T01:18:27;11.23;;;4.60;;
76850;SDS011;65824;43.726;20.692;2023-02-01T01:20:53;8.65;;;4.55;;
76850;SDS011;65824;43.726;20.692;2023-02-01T01:23:18;11.43;;;4.85;;
76850;SDS011;65824;43.726;20.692;2023-02-01T01:25:44;10.95;;;5.15;;
76850;SDS011;65824;43.726;20.692;2023-02-01T01:28:11;11.90;;;4.90;;
76850;SDS011;65824;43.726;20.692;2023-02-01T01:30:38;12.27;;;4.85;;
76850;SDS011;65824;43.726;20.692;2023-02-01T01:33:03;11.95;;;4.90;;
76850;SDS011;65824;43.726;20.692;2023-02-01T01:35:29;12.20;;;5.30;;
76850;SDS011;65824;43.726;20.692;2023-02-01T01:37:57;12.77;;;4.85;;
76850;SDS011;65824;43.726;20.692;2023-02-01T01:40:25;16.00;;;6.07;;
76850;SDS011;65824;43.726;20.692;2023-02-01T01:42:51;13.27;;;6.40;;
76850;SDS011;65824;43.726;20.692;2023-02-01T01:45:27;13.30;;;6.28;;
76850;SDS011;65824;43.726;20.692;2023-02-01T01:48:05;12.63;;;5.68;;
76850;SDS011;65824;43.726;20.692;2023-02-01T01:50:35;13.05;;;5.75;;
76850;SDS011;65824;43.726;20.692;2023-02-01T01:53:08;12.65;;;5.78;;
76850;SDS011;65824;43.726;20.692;2023-02-01T01:55:37;11.82;;;5.30;;
76850;SDS011;65824;43.726;20.692;2023-02-01T01:58:05;10.90;;;5.47;;
76850;SDS011;65824;43.726;20.692;2023-02-01T02:00:33;10.75;;;5.28;;
76850;SDS011;65824;43.726;20.692;2023-02-01T02:03:00;10.43;;;5.32;;
76850;SDS011;65824;43.726;20.692;2023-02-01T02:05:53;10.20;;;5.07;;
76850;SDS011;65824;43.726;20.692;2023-02-01T02:08:20;12.85;;;5.28;;
76850;SDS011;65824;43.726;20.692;2023-02-01T02:10:47;10.35;;;4.85;;
76850;SDS011;65824;43.726;20.692;2023-02-01T02:13:35;10.85;;;5.60;;
76850;SDS011;65824;43.726;20.692;2023-02-01T02:27:44;11.77;;;5.43;;
76850;SDS011;65824;43.726;20.692;2023-02-01T02:38:32;17.15;;;7.32;;
76850;SDS011;65824;43.726;20.692;2023-02-01T02:47:11;17.38;;;7.75;;
76850;SDS011;65824;43.726;20.692;2023-02-01T02:49:55;16.67;;;7.32;;
76850;SDS011;65824;43.726;20.692;2023-02-01T02:52:53;14.15;;;6.43;;
76850;SDS011;65824;43.726;20.692;2023-02-01T02:55:42;15.93;;;6.43;;
76850;SDS011;65824;43.726;20.692;2023-02-01T02:58:11;20.60;;;7.25;;
76850;SDS011;65824;43.726;20.692;2023-02-01T03:00:57;16.88;;;7.63;;
76850;SDS011;65824;43.726;20.692;2023-02-01T03:03:41;18.15;;;7.30;;
76850;SDS011;65824;43.726;20.692;2023-02-01T03:06:33;17.02;;;7.32;;
76850;SDS011;65824;43.726;20.692;2023-02-01T03:08:59;16.70;;;7.88;;
76850;SDS011;65824;43.726;20.692;2023-02-01T03:11:26;18.25;;;7.57;;
76850;SDS011;65824;43.726;20.692;2023-02-01T03:14:12;16.63;;;7.05;;
76850;SDS011;65824;43.726;20.692;2023-02-01T03:16:47;17.60;;;8.70;;
76850;SDS011;65824;43.726;20.692;2023-02-01T03:19:29;18.42;;;8.45;;
76850;SDS011;65824;43.726;20.692;2023-02-01T03:22:05;19.15;;;8.35;;
76850;SDS011;65824;43.726;20.692;2023-02-01T03:24:34;17.50;;;8.10;;
76850;SDS011;65824;43.726;20.692;2023-02-01T03:30:27;21.88;;;8.35;;
76850;SDS011;65824;43.726;20.692;2023-02-01T03:32:56;18.58;;;7.70;;
76850;SDS011;65824;43.726;20.692;2023-02-01T03:38:27;14.88;;;7.40;;
76850;SDS011;65824;43.726;20.692;2023-02-01T03:43:58;20.83;;;8.68;;
76850;SDS011;65824;43.726;20.692;2023-02-01T03:46:33;22.58;;;10.27;;
76850;SDS011;65824;43.726;20.692;2023-02-01T03:49:03;23.10;;;9.82;;
76850;SDS011;65824;43.726;20.692;2023-02-01T03:51:35;20.92;;;9.90;;
76850;SDS011;65824;43.726;20.692;2023-02-01T03:54:06;19.50;;;9.25;;
76850;SDS011;65824;43.726;20.692;2023-02-01T03:56:32;21.65;;;9.57;;
76850;SDS011;65824;43.726;20.692;2023-02-01T03:58:58;23.73;;;9.82;;
76850;SDS011;65824;43.726;20.692;2023-02-01T04:01:25;19.55;;;8.75;;
76850;SDS011;65824;43.726;20.692;2023-02-01T04:03:55;20.08;;;9.60;;
76850;SDS011;65824;43.726;20.692;2023-02-01T04:06:21;20.67;;;9.48;;
76850;SDS011;65824;43.726;20.692;2023-02-01T04:08:50;16.58;;;7.88;;
76850;SDS011;65824;43.726;20.692;2023-02-01T04:11:17;17.92;;;7.65;;
76850;SDS011;65824;43.726;20.692;2023-02-01T04:13:43;13.93;;;6.65;;
76850;SDS011;65824;43.726;20.692;2023-02-01T04:16:09;13.15;;;6.15;;
76850;SDS011;65824;43.726;20.692;2023-02-01T04:18:35;14.20;;;6.85;;
76850;SDS011;65824;43.726;20.692;2023-02-01T04:21:01;13.80;;;5.82;;
76850;SDS011;65824;43.726;20.692;2023-02-01T04:23:27;15.63;;;6.95;;
76850;SDS011;65824;43.726;20.692;2023-02-01T04:25:53;13.75;;;6.32;;
76850;SDS011;65824;43.726;20.692;2023-02-01T04:28:20;16.42;;;6.30;;
76850;SDS011;65824;43.726;20.692;2023-02-01T04:30:48;12.90;;;6.53;;
76850;SDS011;65824;43.726;20.692;2023-02-01T04:33:15;13.75;;;6.25;;
76850;SDS011;65824;43.726;20.692;2023-02-01T04:35:40;18.00;;;6.60;;
76850;SDS011;65824;43.726;20.692;2023-02-01T04:38:06;13.40;;;6.20;;
76850;SDS011;65824;43.726;20.692;2023-02-01T04:40:32;16.20;;;6.63;;
76850;SDS011;65824;43.726;20.692;2023-02-01T04:43:02;11.90;;;5.68;;
76850;SDS011;65824;43.726;20.692;2023-02-01T04:45:28;12.60;;;5.78;;
76850;SDS011;65824;43.726;20.692;2023-02-01T04:47:54;18.33;;;6.55;;
76850;SDS011;65824;43.726;20.692;2023-02-01T04:50:20;17.40;;;6.78;;
76850;SDS011;65824;43.726;20.692;2023-02-01T04:52:45;15.82;;;7.00;;
76850;SDS011;65824;43.726;20.692;2023-02-01T04:55:11;12.45;;;6.93;;
76850;SDS011;65824;43.726;20.692;2023-02-01T04:57:36;16.38;;;7.57;;
76850;SDS011;65824;43.726;20.692;2023-02-01T05:00:05;16.55;;;7.63;;
76850;SDS011;65824;43.726;20.692;2023-02-01T05:02:31;18.33;;;7.82;;
76850;SDS011;65824;43.726;20.692;2023-02-01T05:04:57;18.65;;;8.52;;
76850;SDS011;65824;43.726;20.692;2023-02-01T05:07:25;19.45;;;8.45;;
76850;SDS011;65824;43.726;20.692;2023-02-01T05:09:51;20.65;;;9.30;;
76850;SDS011;65824;43.726;20.692;2023-02-01T05:12:16;21.30;;;9.65;;
76850;SDS011;65824;43.726;20.692;2023-02-01T05:15:00;30.63;;;13.48;;
76850;SDS011;65824;43.726;20.692;2023-02-01T05:17:25;39.95;;;16.90;;
76850;SDS011;65824;43.726;20.692;2023-02-01T05:19:52;34.30;;;16.58;;
76850;SDS011;65824;43.726;20.692;2023-02-01T05:22:17;38.13;;;17.33;;
76850;SDS011;65824;43.726;20.692;2023-02-01T05:24:43;35.50;;;16.10;;
76850;SDS011;65824;43.726;20.692;2023-02-01T05:27:09;41.85;;;16.60;;
76850;SDS011;65824;43.726;20.692;2023-02-01T05:29:36;31.27;;;13.60;;
76850;SDS011;65824;43.726;20.692;2023-02-01T05:32:02;28.58;;;12.93;;
76850;SDS011;65824;43.726;20.692;2023-02-01T05:34:28;28.08;;;11.60;;
76850;SDS011;65824;43.726;20.692;2023-02-01T05:36:53;26.98;;;11.13;;
76850;SDS011;65824;43.726;20.692;2023-02-01T05:39:19;26.08;;;11.50;;
76850;SDS011;65824;43.726;20.692;2023-02-01T05:41:44;23.30;;;10.45;;
76850;SDS011;65824;43.726;20.692;2023-02-01T05:44:10;25.33;;;11.77;;
76850;SDS011;65824;43.726;20.692;2023-02-01T05:46:36;31.20;;;13.02;;
76850;SDS011;65824;43.726;20.692;2023-02-01T05:49:03;29.13;;;12.60;;
76850;SDS011;65824;43.726;20.692;2023-02-01T05:51:29;28.17;;;12.07;;
76850;SDS011;65824;43.726;20.692;2023-02-01T05:53:54;29.02;;;13.32;;
76850;SDS011;65824;43.726;20.692;2023-02-01T05:56:20;34.50;;;13.27;;
76850;SDS011;65824;43.726;20.692;2023-02-01T05:58:45;37.47;;;15.45;;
76850;SDS011;65824;43.726;20.692;2023-02-01T06:01:11;39.95;;;17.08;;
76850;SDS011;65824;43.726;20.692;2023-02-01T06:03:36;37.72;;;16.77;;
76850;SDS011;65824;43.726;20.692;2023-02-01T06:06:02;42.15;;;15.35;;
76850;SDS011;65824;43.726;20.692;2023-02-01T06:08:29;33.50;;;14.52;;
76850;SDS011;65824;43.726;20.692;2023-02-01T06:11:01;35.35;;;14.40;;
76850;SDS011;65824;43.726;20.692;2023-02-01T06:13:29;33.15;;;13.07;;
76850;SDS011;65824;43.726;20.692;2023-02-01T06:15:54;32.83;;;13.32;;
76850;SDS011;65824;43.726;20.692;2023-02-01T06:18:22;32.50;;;13.00;;
76850;SDS011;65824;43.726;20.692;2023-02-01T06:20:55;33.60;;;13.90;;
76850;SDS011;65824;43.726;20.692;2023-02-01T06:23:21;30.80;;;13.40;;
76850;SDS011;65824;43.726;20.692;2023-02-01T06:25:49;29.95;;;13.48;;
76850;SDS011;65824;43.726;20.692;2023-02-01T06:28:15;29.23;;;13.32;;
76850;SDS011;65824;43.726;20.692;2023-02-01T06:30:41;31.00;;;13.88;;
76850;SDS011;65824;43.726;20.692;2023-02-01T06:33:10;30.50;;;14.23;;
76850;SDS011;65824;43.726;20.692;2023-02-01T06:35:37;31.48;;;13.20;;
76850;SDS011;65824;43.726;20.692;2023-02-01T06:38:03;28.27;;;14.00;;
76850;SDS011;65824;43.726;20.692;2023-02-01T06:40:29;28.85;;;14.65;;
76850;SDS011;65824;43.726;20.692;2023-02-01T06:42:54;31.30;;;15.77;;
76850;SDS011;65824;43.726;20.692;2023-02-01T06:45:20;35.22;;;19.20;;
76850;SDS011;65824;43.726;20.692;2023-02-01T06:47:45;41.78;;;18.77;;
76850;SDS011;65824;43.726;20.692;2023-02-01T06:50:10;35.35;;;18.80;;
76850;SDS011;65824;43.726;20.692;2023-02-01T06:52:41;41.45;;;18.88;;
76850;SDS011;65824;43.726;20.692;2023-02-01T06:55:07;38.40;;;18.38;;
76850;SDS011;65824;43.726;20.692;2023-02-01T06:57:32;38.00;;;17.80;;
76850;SDS011;65824;43.726;20.692;2023-02-01T06:59:59;36.88;;;18.05;;
76850;SDS011;65824;43.726;20.692;2023-02-01T07:02:30;38.22;;;18.40;;
76850;SDS011;65824;43.726;20.692;2023-02-01T07:04:57;34.08;;;16.52;;
76850;SDS011;65824;43.726;20.692;2023-02-01T07:07:22;34.33;;;15.05;;
76850;SDS011;65824;43.726;20.692;2023-02-01T07:09:48;30.38;;;15.18;;
76850;SDS011;65824;43.726;20.692;2023-02-01T07:12:14;28.73;;;13.27;;
76850;SDS011;65824;43.726;20.692;2023-02-01T07:14:45;22.25;;;10.32;;
76850;SDS011;65824;43.726;20.692;2023-02-01T07:17:15;18.15;;;9.55;;
76850;SDS011;65824;43.726;20.692;2023-02-01T07:19:41;19.95;;;9.00;;
76850;SDS011;65824;43.726;20.692;2023-02-01T07:22:07;18.13;;;8.40;;
76850;SDS011;65824;43.726;20.692;2023-02-01T07:24:33;16.27;;;7.80;;
76850;SDS011;65824;43.726;20.692;2023-02-01T07:27:00;14.77;;;7.22;;
76850;SDS011;65824;43.726;20.692;2023-02-01T07:29:27;20.40;;;8.70;;
76850;SDS011;65824;43.726;20.692;2023-02-01T07:31:53;14.93;;;7.85;;
76850;SDS011;65824;43.726;20.692;2023-02-01T07:34:18;16.90;;;7.90;;
76850;SDS011;65824;43.726;20.692;2023-02-01T07:36:43;13.02;;;7.40;;
76850;SDS011;65824;43.726;20.692;2023-02-01T07:39:10;15.35;;;6.95;;
76850;SDS011;65824;43.726;20.692;2023-02-01T07:41:35;15.20;;;7.07;;
76850;SDS011;65824;43.726;20.692;2023-02-01T07:44:01;16.33;;;7.07;;
76850;SDS011;65824;43.726;20.692;2023-02-01T07:49:11;19.95;;;8.20;;
76850;SDS011;65824;43.726;20.692;2023-02-01T07:51:40;14.63;;;6.90;;
76850;SDS011;65824;43.726;20.692;2023-02-01T07:54:05;15.98;;;7.88;;
76850;SDS011;65824;43.726;20.692;2023-02-01T07:56:32;15.60;;;8.38;;
76850;SDS011;65824;43.726;20.692;2023-02-01T07:58:58;21.02;;;8.85;;
76850;SDS011;65824;43.726;20.692;2023-02-01T08:01:26;18.55;;;8.20;;
76850;SDS011;65824;43.726;20.692;2023-02-01T08:03:54;20.00;;;8.93;;
76850;SDS011;65824;43.726;20.692;2023-02-01T08:06:21;17.52;;;8.65;;
76850;SDS011;65824;43.726;20.692;2023-02-01T08:08:48;17.13;;;8.35;;
76850;SDS011;65824;43.726;20.692;2023-02-01T08:11:15;14.50;;;7.53;;
76850;SDS011;65824;43.726;20.692;2023-02-01T08:13:41;12.98;;;6.53;;
76850;SDS011;65824;43.726;20.692;2023-02-01T08:16:09;15.73;;;6.78;;
76850;SDS011;65824;43.726;20.692;2023-02-01T08:18:36;13.80;;;6.93;;
76850;SDS011;65824;43.726;20.692;2023-02-01T08:21:06;13.48;;;7.07;;
76850;SDS011;65824;43.726;20.692;2023-02-01T08:23:46;13.85;;;6.57;;
76850;SDS011;65824;43.726;20.692;2023-02-01T08:28:51;12.93;;;6.15;;
76850;SDS011;65824;43.726;20.692;2023-02-01T08:33:47;16.65;;;6.97;;
76850;SDS011;65824;43.726;20.692;2023-02-01T08:36:20;15.32;;;6.93;;
76850;SDS011;65824;43.726;20.692;2023-02-01T08:38:46;16.50;;;7.20;;
76850;SDS011;65824;43.726;20.692;2023-02-01T08:41:17;17.80;;;7.22;;
76850;SDS011;65824;43.726;20.692;2023-02-01T08:43:44;14.23;;;6.68;;
76850;SDS011;65824;43.726;20.692;2023-02-01T08:46:10;12.88;;;6.43;;
76850;SDS011;65824;43.726;20.692;2023-02-01T08:48:36;16.00;;;6.65;;
76850;SDS011;65824;43.726;20.692;2023-02-01T08:51:03;16.77;;;6.45;;
76850;SDS011;65824;43.726;20.692;2023-02-01T08:53:30;14.05;;;7.10;;
76850;SDS011;65824;43.726;20.692;2023-02-01T08:55:57;20.13;;;8.07;;
76850;SDS011;65824;43.726;20.692;2023-02-01T08:58:23;19.38;;;8.90;;
76850;SDS011;65824;43.726;20.692;2023-02-01T09:00:49;19.45;;;8.00;;
76850;SDS011;65824;43.726;20.692;2023-02-01T09:03:27;15.40;;;8.55;;
76850;SDS011;65824;43.726;20.692;2023-02-01T09:05:59;18.52;;;7.70;;
76850;SDS011;65824;43.726;20.692;2023-02-01T09:08:25;15.68;;;7.35;;
76850;SDS011;65824;43.726;20.692;2023-02-01T09:10:52;13.70;;;5.90;;
76850;SDS011;65824;43.726;20.692;2023-02-01T09:16:25;14.30;;;6.55;;
76850;SDS011;65824;43.726;20.692;2023-02-01T09:18:55;15.88;;;7.45;;
76850;SDS011;65824;43.726;20.692;2023-02-01T09:21:20;13.25;;;7.10;;
76850;SDS011;65824;43.726;20.692;2023-02-01T09:23:47;15.10;;;8.10;;
76850;SDS011;65824;43.726;20.692;2023-02-01T09:26:18;12.40;;;6.25;;
76850;SDS011;65824;43.726;20.692;2023-02-01T09:28:43;14.50;;;6.63;;
76850;SDS011;65824;43.726;20.692;2023-02-01T09:31:09;11.25;;;5.47;;
76850;SDS011;65824;43.726;20.692;2023-02-01T09:33:34;10.45;;;5.60;;
76850;SDS011;65824;43.726;20.692;2023-02-01T09:36:01;13.43;;;6.25;;
76850;SDS011;65824;43.726;20.692;2023-02-01T09:38:28;16.15;;;6.85;;
76850;SDS011;65824;43.726;20.692;2023-02-01T09:40:55;12.27;;;6.15;;
76850;SDS011;65824;43.726;20.692;2023-02-01T09:43:26;14.80;;;6.43;;
76850;SDS011;65824;43.726;20.692;2023-02-01T09:46:28;13.70;;;6.78;;
76850;SDS011;65824;43.726;20.692;2023-02-01T09:48:56;11.75;;;5.55;;
76850;SDS011;65824;43.726;20.692;2023-02-01T09:54:21;16.20;;;5.65;;
76850;SDS011;65824;43.726;20.692;2023-02-01T09:59:34;13.85;;;5.50;;
76850;SDS011;65824;43.726;20.692;2023-02-01T10:02:17;12.82;;;5.63;;
76850;SDS011;65824;43.726;20.692;2023-02-01T10:04:49;12.30;;;5.45;;
76850;SDS011;65824;43.726;20.692;2023-02-01T10:26:36;13.75;;;5.22;;
76850;SDS011;65824;43.726;20.692;2023-02-01T10:29:04;12.50;;;5.40;;
76850;SDS011;65824;43.726;20.692;2023-02-01T10:31:42;11.80;;;5.75;;
76850;SDS011;65824;43.726;20.692;2023-02-01T10:34:19;11.30;;;5.82;;
76850;SDS011;65824;43.726;20.692;2023-02-01T10:36:54;18.45;;;6.32;;
76850;SDS011;65824;43.726;20.692;2023-02-01T10:39:20;14.75;;;5.22;;
76850;SDS011;65824;43.726;20.692;2023-02-01T10:41:47;14.95;;;5.15;;
76850;SDS011;65824;43.726;20.692;2023-02-01T10:44:15;15.30;;;5.68;;
76850;SDS011;65824;43.726;20.692;2023-02-01T10:46:43;12.80;;;5.80;;
76850;SDS011;65824;43.726;20.692;2023-02-01T10:52:15;10.90;;;4.75;;
76850;SDS011;65824;43.726;20.692;2023-02-01T10:54:42;9.82;;;4.38;;
76850;SDS011;65824;43.726;20.692;2023-02-01T10:57:17;12.25;;;4.05;;
76850;SDS011;65824;43.726;20.692;2023-02-01T10:59:51;8.60;;;3.88;;
76850;SDS011;65824;43.726;20.692;2023-02-01T11:02:25;8.02;;;3.65;;
76850;SDS011;65824;43.726;20.692;2023-02-01T11:05:03;13.15;;;5.25;;
76850;SDS011;65824;43.726;20.692;2023-02-01T11:07:37;13.75;;;5.38;;
76850;SDS011;65824;43.726;20.692;2023-02-01T11:10:04;11.43;;;5.70;;
76850;SDS011;65824;43.726;20.692;2023-02-01T11:12:31;16.02;;;6.47;;
76850;SDS011;65824;43.726;20.692;2023-02-01T11:15:19;11.93;;;5.85;;
76850;SDS011;65824;43.726;20.692;2023-02-01T11:18:12;21.00;;;5.03;;
76850;SDS011;65824;43.726;20.692;2023-02-01T11:20:47;10.93;;;4.53;;
76850;SDS011;65824;43.726;20.692;2023-02-01T11:23:18;10.15;;;4.70;;
76850;SDS011;65824;43.726;20.692;2023-02-01T11:25:49;12.80;;;5.43;;
76850;SDS011;65824;43.726;20.692;2023-02-01T11:28:27;13.25;;;4.68;;
76850;SDS011;65824;43.726;20.692;2023-02-01T11:31:17;15.25;;;5.50;;
76850;SDS011;65824;43.726;20.692;2023-02-01T11:33:46;20.92;;;6.60;;
76850;SDS011;65824;43.726;20.692;2023-02-01T11:36:18;14.15;;;5.18;;
76850;SDS011;65824;43.726;20.692;2023-02-01T11:44:45;9.38;;;4.13;;
76850;SDS011;65824;43.726;20.692;2023-02-01T11:47:23;9.55;;;4.95;;
76850;SDS011;65824;43.726;20.692;2023-02-01T11:49:57;13.00;;;6.47;;
76850;SDS011;65824;43.726;20.692;2023-02-01T11:55:32;8.95;;;5.10;;
76850;SDS011;65824;43.726;20.692;2023-02-01T12:04:43;12.88;;;4.90;;
76850;SDS011;65824;43.726;20.692;2023-02-01T12:06:58;12.00;;;4.93;;
76850;SDS011;65824;43.726;20.692;2023-02-01T12:09:47;14.48;;;5.45;;
76850;SDS011;65824;43.726;20.692;2023-02-01T12:12:33;10.20;;;4.97;;
76850;SDS011;65824;43.726;20.692;2023-02-01T12:23:34;9.32;;;3.70;;
76850;SDS011;65824;43.726;20.692;2023-02-01T12:37:21;9.50;;;3.90;;
76850;SDS011;65824;43.726;20.692;2023-02-01T12:42:35;10.43;;;3.90;;
76850;SDS011;65824;43.726;20.692;2023-02-01T12:48:17;6.88;;;2.78;;
76850;SDS011;65824;43.726;20.692;2023-02-01T12:50:56;6.00;;;2.47;;
76850;SDS011;65824;43.726;20.692;2023-02-01T12:56:28;10.27;;;4.68;;
76850;SDS011;65824;43.726;20.692;2023-02-01T12:58:58;7.82;;;3.70;;
76850;SDS011;65824;43.726;20.692;2023-02-01T13:01:40;10.90;;;3.70;;
76850;SDS011;65824;43.726;20.692;2023-02-01T13:12:47;7.72;;;3.00;;
76850;SDS011;65824;43.726;20.692;2023-02-01T13:15:21;7.13;;;3.40;;
76850;SDS011;65824;43.726;20.692;2023-02-01T13:17:51;6.78;;;3.42;;
76850;SDS011;65824;43.726;20.692;2023-02-01T13:20:25;7.45;;;3.20;;
76850;SDS011;65824;43.726;20.692;2023-02-01T13:23:07;13.25;;;3.63;;
76850;SDS011;65824;43.726;20.692;2023-02-01T13:25:46;8.90;;;3.58;;
76850;SDS011;65824;43.726;20.692;2023-02-01T13:28:28;10.93;;;4.40;;
76850;SDS011;65824;43.726;20.692;2023-02-01T13:33:55;9.15;;;4.50;;
76850;SDS011;65824;43.726;20.692;2023-02-01T13:36:56;12.55;;;4.18;;
76850;SDS011;65824;43.726;20.692;2023-02-01T13:39:43;14.73;;;5.93;;
76850;SDS011;65824;43.726;20.692;2023-02-01T13:42:24;13.45;;;6.10;;
76850;SDS011;65824;43.726;20.692;2023-02-01T13:44:54;12.10;;;5.82;;
76850;SDS011;65824;43.726;20.692;2023-02-01T13:50:16;14.05;;;4.80;;
76850;SDS011;65824;43.726;20.692;2023-02-01T13:53:17;13.32;;;5.13;;
76850;SDS011;65824;43.726;20.692;2023-02-01T13:56:19;10.68;;;4.72;;
76850;SDS011;65824;43.726;20.692;2023-02-01T13:58:47;13.25;;;5.75;;
76850;SDS011;65824;43.726;20.692;2023-02-01T14:03:54;9.43;;;5.15;;
76850;SDS011;65824;43.726;20.692;2023-02-01T14:15:27;14.07;;;5.97;;
76850;SDS011;65824;43.726;20.692;2023-02-01T14:17:53;13.82;;;6.68;;
76850;SDS011;65824;43.726;20.692;2023-02-01T14:23:12;12.13;;;4.78;;
76850;SDS011;65824;43.726;20.692;2023-02-01T14:25:40;10.60;;;4.88;;
76850;SDS011;65824;43.726;20.692;2023-02-01T14:28:40;13.20;;;5.35;;
76850;SDS011;65824;43.726;20.692;2023-02-01T14:30:57;15.68;;;5.95;;
76850;SDS011;65824;43.726;20.692;2023-02-01T14:33:24;19.20;;;7.85;;
76850;SDS011;65824;43.726;20.692;2023-02-01T14:36:02;16.48;;;7.10;;
76850;SDS011;65824;43.726;20.692;2023-02-01T14:38:30;18.92;;;7.00;;
76850;SDS011;65824;43.726;20.692;2023-02-01T14:41:10;19.52;;;6.80;;
76850;SDS011;65824;43.726;20.692;2023-02-01T14:52:35;22.50;;;9.75;;
76850;SDS011;65824;43.726;20.692;2023-02-01T14:58:16;20.27;;;10.45;;
76850;SDS011;65824;43.726;20.692;2023-02-01T15:00:53;24.30;;;9.15;;
76850;SDS011;65824;43.726;20.692;2023-02-01T15:08:49;26.25;;;11.30;;
76850;SDS011;65824;43.726;20.692;2023-02-01T15:11:19;28.08;;;12.32;;
76850;SDS011;65824;43.726;20.692;2023-02-01T15:13:49;29.13;;;12.57;;
76850;SDS011;65824;43.726;20.692;2023-02-01T15:16:16;28.05;;;12.68;;
76850;SDS011;65824;43.726;20.692;2023-02-01T15:18:45;27.88;;;13.75;;
76850;SDS011;65824;43.726;20.692;2023-02-01T15:21:22;32.50;;;13.60;;
76850;SDS011;65824;43.726;20.692;2023-02-01T15:23:48;26.83;;;13.02;;
76850;SDS011;65824;43.726;20.692;2023-02-01T15:26:29;27.83;;;12.80;;
76850;SDS011;65824;43.726;20.692;2023-02-01T15:28:59;27.60;;;12.60;;
76850;SDS011;65824;43.726;20.692;2023-02-01T15:34:11;23.92;;;12.80;;
76850;SDS011;65824;43.726;20.692;2023-02-01T15:36:38;27.50;;;12.50;;
76850;SDS011;65824;43.726;20.692;2023-02-01T15:39:11;22.13;;;12.07;;
76850;SDS011;65824;43.726;20.692;2023-02-01T15:41:49;27.50;;;12.07;;
76850;SDS011;65824;43.726;20.692;2023-02-01T15:46:52;44.20;;;24.17;;
76850;SDS011;65824;43.726;20.692;2023-02-01T15:49:30;62.97;;;32.30;;
76850;SDS011;65824;43.726;20.692;2023-02-01T15:51:59;78.85;;;38.90;;
76850;SDS011;65824;43.726;20.692;2023-02-01T15:54:26;87.45;;;43.15;;
76850;SDS011;65824;43.726;20.692;2023-02-01T15:57:11;89.88;;;47.42;;
76850;SDS011;65824;43.726;20.692;2023-02-01T15:59:44;100.78;;;52.45;;
76850;SDS011;65824;43.726;20.692;2023-02-01T16:02:33;100.15;;;48.88;;
76850;SDS011;65824;43.726;20.692;2023-02-01T16:05:29;104.88;;;48.53;;
76850;SDS011;65824;43.726;20.692;2023-02-01T16:07:57;97.60;;;49.15;;
76850;SDS011;65824;43.726;20.692;2023-02-01T16:10:29;104.55;;;49.58;;
76850;SDS011;65824;43.726;20.692;2023-02-01T16:13:16;88.63;;;45.75;;
76850;SDS011;65824;43.726;20.692;2023-02-01T16:15:43;99.95;;;51.88;;
76850;SDS011;65824;43.726;20.692;2023-02-01T16:18:09;163.80;;;83.28;;
76850;SDS011;65824;43.726;20.692;2023-02-01T16:20:54;130.77;;;69.95;;
76850;SDS011;65824;43.726;20.692;2023-02-01T16:23:21;105.15;;;54.22;;
76850;SDS011;65824;43.726;20.692;2023-02-01T16:25:46;109.63;;;54.78;;
76850;SDS011;65824;43.726;20.692;2023-02-01T16:28:27;120.72;;;59.40;;
76850;SDS011;65824;43.726;20.692;2023-02-01T16:30:52;110.30;;;56.08;;
76850;SDS011;65824;43.726;20.692;2023-02-01T16:33:19;128.40;;;65.53;;
76850;SDS011;65824;43.726;20.692;2023-02-01T16:35:49;138.27;;;69.75;;
76850;SDS011;65824;43.726;20.692;2023-02-01T16:38:16;137.75;;;71.32;;
76850;SDS011;65824;43.726;20.692;2023-02-01T16:40:45;127.03;;;61.25;;
76850;SDS011;65824;43.726;20.692;2023-02-01T16:43:13;70.03;;;37.00;;
76850;SDS011;65824;43.726;20.692;2023-02-01T16:45:46;70.85;;;35.55;;
76850;SDS011;65824;43.726;20.692;2023-02-01T16:48:17;76.75;;;39.05;;
76850;SDS011;65824;43.726;20.692;2023-02-01T16:50:47;76.10;;;40.25;;
76850;SDS011;65824;43.726;20.692;2023-02-01T16:53:20;107.00;;;53.03;;
76850;SDS011;65824;43.726;20.692;2023-02-01T16:55:48;95.78;;;47.33;;
76850;SDS011;65824;43.726;20.692;2023-02-01T16:58:15;111.78;;;51.08;;
76850;SDS011;65824;43.726;20.692;2023-02-01T17:00:42;130.43;;;58.83;;
76850;SDS011;65824;43.726;20.692;2023-02-01T17:03:09;125.05;;;59.10;;
76850;SDS011;65824;43.726;20.692;2023-02-01T17:05:41;142.00;;;67.82;;
76850;SDS011;65824;43.726;20.692;2023-02-01T17:08:12;138.52;;;62.17;;
76850;SDS011;65824;43.726;20.692;2023-02-01T17:10:42;124.05;;;61.40;;
76850;SDS011;65824;43.726;20.692;2023-02-01T17:13:15;138.02;;;62.95;;
76850;SDS011;65824;43.726;20.692;2023-02-01T17:15:56;126.72;;;62.97;;
76850;SDS011;65824;43.726;20.692;2023-02-01T17:18:23;129.38;;;60.88;;
76850;SDS011;65824;43.726;20.692;2023-02-01T17:20:50;129.50;;;59.85;;
76850;SDS011;65824;43.726;20.692;2023-02-01T17:23:17;107.18;;;49.45;;
76850;SDS011;65824;43.726;20.692;2023-02-01T17:25:44;110.50;;;52.60;;
76850;SDS011;65824;43.726;20.692;2023-02-01T17:28:10;125.18;;;54.05;;